Time;durP1;ratioP1;P1;durP2;ratioP2;P2;SDS_P1;SDS_P2;PMS_P1;PMS_P2;Temp;Humidity;BMP_temperature;BMP_pressure;BME280_temperature;BME280_humidity;BME280_pressure;Samples;Min_cycle;Max_cycle;Signal;HPM_P1;HPM_P2
2021/12/18 00:04:30;;;;;;;14.50;6.90;;;;;;;3.15;80.11;101466.82;208433;1315;140485;-71
2021/12/18 00:09:36;;;;;;;17.70;5.50;;;;;;;3.21;79.94;101462.41;208199;1316;139944;-68
2021/12/18 00:14:44;;;;;;;15.10;6.30;;;;;;;3.19;80.12;101476.15;207486;1315;139037;-72
2021/12/18 00:20:10;;;;;;;15.90;5.30;;;;;;;3.15;80.13;101487.02;208476;1315;139055;-74
2021/12/18 00:25:17;;;;;;;15.80;5.50;;;;;;;3.12;79.91;101495.58;207432;1315;140421;-73
2021/12/18 00:30:22;;;;;;;21.50;7.50;;;;;;;3.12;79.81;101491.23;207877;1315;142972;-69
2021/12/18 00:35:36;;;;;;;20.30;11.50;;;;;;;3.12;79.77;101490.63;208117;1315;140910;-68
2021/12/18 00:40:58;;;;;;;;;;;;;;;;;;;;;
2021/12/18 00:46:12;;;;;;;14.00;6.00;;;;;;;3.07;79.98;101495.55;207462;1315;139882;-69
2021/12/18 00:51:31;;;;;;;16.70;7.00;;;;;;;3.06;79.81;101503.28;208526;1315;139781;-69
2021/12/18 00:56:35;;;;;;;13.20;7.00;;;;;;;3.03;79.85;101514.69;207383;1316;141378;-69
2021/12/18 01:01:41;;;;;;;11.30;5.50;;;;;;;2.97;80.08;101524.70;207922;1315;140010;-69
2021/12/18 01:06:53;;;;;;;17.80;7.60;;;;;;;2.91;80.08;101521.79;207549;1315;139401;-69
2021/12/18 01:11:57;;;;;;;15.40;7.10;;;;;;;2.94;80.15;101518.83;207190;1315;140386;-66
2021/12/18 01:27:36;;;;;;;13.30;6.20;;;;;;;2.93;80.29;101506.68;206681;1316;139372;-70
2021/12/18 01:33:01;;;;;;;18.00;7.30;;;;;;;2.90;80.22;101509.02;207455;1315;139985;-70
2021/12/18 01:38:05;;;;;;;11.30;5.40;;;;;;;2.93;80.12;101509.48;207503;1315;140182;-73
2021/12/18 01:54:02;;;;;;;9.10;6.70;;;;;;;2.95;80.07;101511.27;209140;1316;139973;-75
2021/12/18 01:59:12;;;;;;;14.50;5.30;;;;;;;2.94;80.09;101517.97;208767;1315;140276;-76
2021/12/18 02:04:17;;;;;;;14.00;7.20;;;;;;;3.01;80.04;101515.88;209197;1315;142838;-74
2021/12/18 02:10:00;;;;;;;8.80;4.70;;;;;;;3.08;79.96;101517.73;209225;1316;139826;-73
2021/12/18 02:20:50;;;;;;;13.40;4.90;;;;;;;3.10;79.96;101519.67;208170;1315;139564;-69
2021/12/18 02:25:56;;;;;;;14.10;5.70;;;;;;;3.14;79.71;101514.89;208045;1315;141484;-68
2021/12/18 02:31:04;;;;;;;15.20;5.90;;;;;;;3.15;79.87;101518.98;208918;1316;140015;-69
2021/12/18 02:36:22;;;;;;;14.30;7.40;;;;;;;3.11;79.83;101513.25;208525;1316;139415;-68
2021/12/18 02:46:56;;;;;;;13.70;6.20;;;;;;;3.02;79.71;101504.79;208110;1315;140400;-71
2021/12/18 02:52:44;;;;;;;15.20;7.40;;;;;;;3.03;80.10;101505.31;206926;1315;139537;-71
2021/12/18 02:57:59;;;;;;;12.40;7.40;;;;;;;3.00;79.80;101498.24;206887;1315;139816;-72
2021/12/18 03:03:11;;;;;;;15.00;7.30;;;;;;;2.95;80.04;101502.27;206977;1316;139328;-72
2021/12/18 03:08:33;;;;;;;19.10;6.40;;;;;;;2.91;79.91;101506.46;206485;1318;140013;-72
2021/12/18 03:20:12;;;;;;;11.00;6.20;;;;;;;2.86;79.84;101493.23;207722;1317;139626;-68
2021/12/18 03:29:58;;;;;;;11.40;6.60;;;;;;;2.81;80.07;101486.85;207418;1318;140391;-68
2021/12/18 03:35:06;;;;;;;6.80;4.90;;;;;;;2.82;79.87;101491.53;208558;1317;139251;-68
2021/12/18 03:40:24;;;;;;;12.70;7.90;;;;;;;2.87;80.01;101492.27;208085;1318;139356;-69
2021/12/18 03:45:32;;;;;;;9.20;5.20;;;;;;;2.88;79.82;101482.33;208316;1316;141064;-74
2021/12/18 03:50:40;;;;;;;7.00;4.80;;;;;;;2.85;79.65;101479.85;208149;1318;141051;-71
2021/12/18 03:55:47;;;;;;;;;;;;;;;2.81;79.58;101470.70;208506;1316;139817;-71
2021/12/18 04:00:53;;;;;;;8.00;4.70;;;;;;;2.76;79.71;101469.33;209012;1317;126773;-71
2021/12/18 04:06:01;;;;;;;9.70;4.60;;;;;;;2.80;79.66;101470.08;209114;1317;139841;-71
2021/12/18 04:11:10;;;;;;;8.40;4.60;;;;;;;2.85;79.43;101470.20;209037;1315;140781;-71
2021/12/18 04:16:21;;;;;;;9.70;5.40;;;;;;;2.86;79.52;101476.55;209213;1309;139439;-71
2021/12/18 04:21:29;;;;;;;10.50;5.10;;;;;;;2.86;79.18;101467.65;207271;1315;139912;-70
2021/12/18 04:26:35;;;;;;;6.00;4.30;;;;;;;2.88;79.09;101461.50;208585;1316;140426;-70
2021/12/18 04:31:57;;;;;;;11.20;5.70;;;;;;;2.86;79.07;101458.17;208018;1316;141115;-72
2021/12/18 04:37:07;;;;;;;8.50;4.50;;;;;;;2.82;79.41;101458.90;207821;1316;138678;-73
2021/12/18 04:42:12;;;;;;;11.00;5.00;;;;;;;2.80;79.67;101451.47;208330;1315;139760;-72
2021/12/18 04:47:17;;;;;;;10.20;5.00;;;;;;;2.80;79.26;101447.48;208163;1316;140441;-73
2021/12/18 04:52:26;;;;;;;10.20;4.80;;;;;;;2.81;79.15;101453.16;207347;1318;140477;-70
2021/12/18 04:57:52;;;;;;;11.10;4.90;;;;;;;2.76;79.36;101455.79;207855;1315;139042;-70
2021/12/18 05:03:01;;;;;;;9.10;6.70;;;;;;;2.72;79.32;101457.21;208023;1316;139067;-71
2021/12/18 05:08:32;;;;;;;12.00;6.10;;;;;;;2.68;79.49;101455.27;207984;1315;141119;-71
2021/12/18 05:13:56;;;;;;;19.60;10.40;;;;;;;2.70;79.19;101453.29;207782;1315;139171;-71
2021/12/18 05:19:14;;;;;;;17.00;10.80;;;;;;;2.73;79.71;101456.80;204833;1315;3497892;-72
2021/12/18 05:24:21;;;;;;;14.10;8.70;;;;;;;2.67;79.58;101465.31;208280;1316;139479;-74
2021/12/18 05:29:33;;;;;;;9.20;5.90;;;;;;;2.63;79.60;101466.65;207067;1316;139073;-76
2021/12/18 05:34:39;;;;;;;15.30;6.60;;;;;;;2.64;79.47;101460.73;207125;1316;140216;-71
2021/12/18 05:39:50;;;;;;;14.30;7.10;;;;;;;2.65;79.77;101467.29;208012;1316;139932;-69
2021/12/18 05:45:00;;;;;;;15.90;7.40;;;;;;;2.63;79.82;101466.95;207083;1316;140342;-72
2021/12/18 05:50:07;;;;;;;15.60;7.20;;;;;;;2.61;79.57;101466.77;207309;1317;140447;-72
2021/12/18 05:55:14;;;;;;;10.10;6.80;;;;;;;2.57;79.51;101462.39;206954;1315;139758;-73
2021/12/18 06:00:21;;;;;;;19.60;7.10;;;;;;;2.53;79.71;101458.20;208467;1316;139962;-71
2021/12/18 06:05:28;;;;;;;20.10;9.00;;;;;;;2.52;79.50;101454.77;208590;1315;140118;-69
2021/12/18 06:10:40;;;;;;;16.10;7.60;;;;;;;2.52;79.57;101445.70;209465;1317;139831;-69
2021/12/18 06:15:50;;;;;;;13.80;8.30;;;;;;;2.53;79.68;101448.29;208279;1316;139998;-70
2021/12/18 06:21:03;;;;;;;15.40;7.50;;;;;;;2.53;79.66;101447.54;208112;1316;140848;-69
2021/12/18 06:26:11;;;;;;;15.70;6.80;;;;;;;2.54;79.77;101438.80;208474;1316;140380;-72
2021/12/18 06:31:17;;;;;;;15.30;6.80;;;;;;;2.53;79.58;101444.73;207495;1316;141215;-74
2021/12/18 06:36:22;;;;;;;13.30;7.40;;;;;;;2.51;79.67;101434.90;208596;1316;150559;-72
2021/12/18 06:41:38;;;;;;;;;;;;;;;;;;;;;
2021/12/18 06:46:42;;;;;;;26.20;10.20;;;;;;;2.56;79.67;101441.66;208812;1315;140399;-70
2021/12/18 06:51:47;;;;;;;15.90;9.00;;;;;;;2.57;79.72;101440.63;207964;1316;139948;-69
2021/12/18 06:56:51;;;;;;;11.00;6.40;;;;;;;2.56;79.65;101435.12;208353;1316;139243;-71
2021/12/18 07:01:56;;;;;;;12.10;6.70;;;;;;;2.51;79.45;101430.55;207216;1316;139341;-70
2021/12/18 07:07:00;;;;;;;18.00;8.90;;;;;;;2.49;79.62;101428.39;206995;1316;140278;-71
2021/12/18 07:12:09;;;;;;;14.50;8.30;;;;;;;2.47;79.61;101429.31;207105;1316;139669;-70
2021/12/18 07:17:15;;;;;;;20.90;8.70;;;;;;;2.44;79.67;101430.33;207209;1316;139570;-67
2021/12/18 07:22:20;;;;;;;14.00;8.20;;;;;;;2.39;79.83;101426.24;207194;1315;140159;-73
2021/12/18 07:27:24;;;;;;;18.20;9.30;;;;;;;2.37;79.52;101413.71;207442;1316;140317;-70
2021/12/18 07:32:37;;;;;;;12.80;8.80;;;;;;;2.34;79.88;101404.52;207788;1316;139878;-70
2021/12/18 07:37:42;;;;;;;14.70;10.30;;;;;;;2.31;79.78;101397.23;207652;1316;139714;-69
2021/12/18 07:42:49;;;;;;;23.00;9.70;;;;;;;2.25;79.79;101405.02;208063;1319;141118;-69
2021/12/18 07:47:55;;;;;;;13.00;8.20;;;;;;;2.24;80.01;101414.05;207544;1316;140554;-70
2021/12/18 07:53:02;;;;;;;15.60;9.40;;;;;;;2.21;80.29;101411.20;207455;1316;161965;-70
2021/12/18 07:58:07;;;;;;;19.20;8.60;;;;;;;2.16;80.23;101407.23;208236;1316;141323;-70
2021/12/18 08:03:14;;;;;;;19.40;10.70;;;;;;;2.14;80.00;101400.73;207990;1316;141000;-69
2021/12/18 08:08:21;;;;;;;19.70;12.10;;;;;;;2.12;80.07;101398.34;208903;1318;139529;-71
2021/12/18 08:13:32;;;;;;;21.50;12.40;;;;;;;2.08;80.34;101398.35;209320;1315;139936;-71
2021/12/18 08:18:40;;;;;;;16.00;9.80;;;;;;;2.13;80.46;101403.00;209083;1317;139823;-69
2021/12/18 08:23:48;;;;;;;18.20;10.80;;;;;;;2.14;80.39;101410.54;209373;1317;140545;-70
2021/12/18 08:28:56;;;;;;;24.40;11.50;;;;;;;2.10;80.16;101414.69;208281;1316;236661;-69
2021/12/18 08:34:05;;;;;;;22.00;11.10;;;;;;;2.11;80.57;101416.15;206898;1316;142955;-70
2021/12/18 08:39:18;;;;;;;35.60;10.80;;;;;;;2.17;80.59;101417.98;207337;1317;140631;-70
2021/12/18 08:44:23;;;;;;;21.90;11.50;;;;;;;2.21;80.67;101419.26;207439;1317;139007;-71
2021/12/18 08:49:28;;;;;;;27.10;10.90;;;;;;;2.23;80.75;101419.59;207537;1315;150003;-69
2021/12/18 08:54:34;;;;;;;20.10;11.40;;;;;;;2.31;81.13;101410.39;207188;1317;140723;-69
2021/12/18 08:59:45;;;;;;;19.80;11.60;;;;;;;2.38;80.64;101403.86;206853;1316;140641;-68
2021/12/18 09:04:50;;;;;;;18.10;9.30;;;;;;;2.35;80.52;101396.57;208182;1316;140211;-70
2021/12/18 09:09:57;;;;;;;26.50;13.30;;;;;;;2.32;80.73;101391.36;207485;1317;140095;-69
2021/12/18 09:15:02;;;;;;;26.90;15.70;;;;;;;2.33;80.51;101399.34;207697;1317;141012;-67
2021/12/18 09:20:07;;;;;;;32.10;13.40;;;;;;;2.34;80.33;101391.00;207764;1315;140196;-68
2021/12/18 09:25:13;;;;;;;25.20;15.20;;;;;;;2.32;80.79;101375.59;207967;1315;139435;-68
2021/12/18 09:30:17;;;;;;;31.60;14.60;;;;;;;2.31;80.56;101362.67;207845;1318;150392;-69
2021/12/18 09:35:22;;;;;;;23.90;12.40;;;;;;;2.34;80.74;101353.61;207577;1317;140049;-68
2021/12/18 09:40:29;;;;;;;29.30;16.00;;;;;;;2.40;80.99;101365.05;208232;1316;140524;-69
2021/12/18 09:45:34;;;;;;;29.50;15.00;;;;;;;2.41;80.72;101348.30;207930;1317;139759;-67
2021/12/18 09:50:42;;;;;;;22.00;14.00;;;;;;;2.43;80.94;101317.91;207254;1316;161528;-67
2021/12/18 09:55:47;;;;;;;24.90;14.80;;;;;;;2.40;80.95;101318.55;207747;1316;141054;-67
2021/12/18 10:00:52;;;;;;;26.20;13.90;;;;;;;2.33;80.61;101314.99;207629;1317;139526;-67
2021/12/18 10:06:32;;;;;;;33.60;15.00;;;;;;;2.30;80.92;101303.83;207086;1317;139758;-66
2021/12/18 10:12:00;;;;;;;31.80;16.20;;;;;;;2.37;80.82;101287.79;209322;1316;140902;-68
2021/12/18 10:17:22;;;;;;;40.70;20.70;;;;;;;2.44;81.18;101274.71;209337;1316;140891;-69
2021/12/18 10:22:27;;;;;;;48.90;18.00;;;;;;;2.45;81.05;101272.62;209042;1316;140080;-73
2021/12/18 10:28:14;;;;;;;54.20;20.20;;;;;;;2.51;81.10;101274.20;208704;1315;141884;-71
2021/12/18 10:33:19;;;;;;;53.40;23.40;;;;;;;2.48;80.69;101259.52;207498;1316;141245;-68
2021/12/18 10:38:47;;;;;;;56.40;18.70;;;;;;;2.47;81.11;101257.15;208992;1316;140730;-67
2021/12/18 10:44:16;;;;;;;48.60;19.10;;;;;;;2.55;81.08;101252.58;208611;1317;141350;-69
2021/12/18 10:49:22;;;;;;;56.30;20.60;;;;;;;2.54;81.03;101250.50;208124;1316;142671;-68
2021/12/18 10:54:27;;;;;;;57.80;22.80;;;;;;;2.51;80.85;101246.24;208560;1317;141377;-67
2021/12/18 10:59:36;;;;;;;54.40;22.20;;;;;;;2.52;80.85;101234.74;207600;1316;141312;-67
2021/12/18 11:04:40;;;;;;;54.20;26.10;;;;;;;2.55;81.29;101223.39;206879;1315;140911;-66
2021/12/18 11:10:21;;;;;;;47.30;20.90;;;;;;;2.55;81.20;101220.42;208575;1315;141136;-68
2021/12/18 11:15:25;;;;;;;37.90;18.10;;;;;;;2.57;81.20;101214.46;207789;1316;141077;-69
2021/12/18 11:20:30;;;;;;;50.00;23.40;;;;;;;2.60;81.00;101214.73;207039;1315;163509;-70
2021/12/18 11:25:34;;;;;;;38.30;21.90;;;;;;;2.64;81.28;101202.19;207295;1316;140723;-65
2021/12/18 11:30:39;;;;;;;30.20;15.00;;;;;;;2.64;81.25;101193.96;207843;1316;139918;-68
2021/12/18 11:35:47;;;;;;;34.70;17.30;;;;;;;2.65;81.01;101187.13;207548;1316;139740;-65
2021/12/18 11:40:50;;;;;;;31.80;18.40;;;;;;;2.68;81.04;101178.77;207396;1316;141384;-65
2021/12/18 11:45:55;;;;;;;28.20;16.10;;;;;;;2.69;81.00;101176.80;206995;1316;140425;-67
2021/12/18 11:51:33;;;;;;;35.70;18.90;;;;;;;2.66;81.03;101180.59;208022;1312;141506;-67
2021/12/18 11:56:54;;;;;;;29.80;16.50;;;;;;;2.64;80.88;101171.45;207223;1315;141373;-67
2021/12/18 12:09:14;;;;;;;42.40;23.20;;;;;;;2.54;81.08;101151.24;208540;1315;139968;-69
2021/12/18 12:14:21;;;;;;;33.60;18.50;;;;;;;2.58;80.87;101142.71;208232;1315;141788;-69
2021/12/18 12:19:49;;;;;;;27.40;17.00;;;;;;;2.61;81.28;101148.44;208591;1317;140786;-70
2021/12/18 12:25:08;;;;;;;27.50;16.70;;;;;;;2.61;81.57;101136.52;208920;1317;140307;-68
2021/12/18 12:30:39;;;;;;;27.90;16.10;;;;;;;2.64;81.23;101137.81;208489;1319;140326;-68
2021/12/18 12:35:55;;;;;;;32.70;18.80;;;;;;;2.64;81.37;101130.71;208606;1321;140965;-70
2021/12/18 12:41:47;;;;;;;32.70;18.90;;;;;;;2.68;81.49;101127.16;208332;1316;141375;-68
2021/12/18 12:47:14;;;;;;;33.50;18.40;;;;;;;2.69;81.88;101112.86;207537;1315;139635;-68
2021/12/18 12:52:22;;;;;;;29.00;19.90;;;;;;;2.70;81.92;101096.95;207454;1315;139806;-67
2021/12/18 12:57:37;;;;;;;35.80;19.80;;;;;;;2.71;81.65;101078.63;208807;1315;141041;-68
2021/12/18 13:02:57;;;;;;;22.10;15.80;;;;;;;2.67;81.65;101076.17;208132;1315;141076;-68
2021/12/18 13:08:17;;;;;;;23.90;17.20;;;;;;;2.63;81.94;101078.84;207555;1315;140305;-67
2021/12/18 13:13:28;;;;;;;28.70;15.20;;;;;;;2.66;81.98;101071.20;207659;1315;140142;-68
2021/12/18 13:18:56;;;;;;;21.30;15.10;;;;;;;2.62;82.20;101070.34;207729;1315;694817;-68
2021/12/18 13:24:06;;;;;;;25.80;14.00;;;;;;;2.65;82.01;101060.48;207605;1314;141038;-69
2021/12/18 13:29:17;;;;;;;20.10;15.10;;;;;;;2.72;82.11;101064.31;207655;1312;140324;-67
2021/12/18 13:34:29;;;;;;;21.60;14.70;;;;;;;2.74;82.45;101062.02;208194;1315;140005;-70
2021/12/18 13:39:38;;;;;;;26.80;20.90;;;;;;;2.75;82.21;101066.54;207412;1316;140945;-67
2021/12/18 13:45:04;;;;;;;25.20;18.10;;;;;;;2.77;82.18;101075.41;207528;1316;140016;-67
2021/12/18 13:50:26;;;;;;;27.10;16.50;;;;;;;2.80;82.25;101085.81;206848;1315;141674;-67
2021/12/18 13:55:51;;;;;;;33.80;20.30;;;;;;;2.80;82.38;101087.17;208388;1315;152280;-67
2021/12/18 14:01:22;;;;;;;34.70;16.20;;;;;;;2.87;82.44;101072.61;207671;1315;140367;-68
2021/12/18 14:06:29;;;;;;;35.70;20.70;;;;;;;2.88;82.66;101041.13;208466;1315;140626;-68
2021/12/18 14:11:45;;;;;;;23.80;15.10;;;;;;;2.84;82.33;101024.98;208013;1315;140576;-68
2021/12/18 14:16:52;;;;;;;32.90;17.60;;;;;;;2.84;82.73;101024.50;208122;1316;140447;-68
2021/12/18 14:22:06;;;;;;;27.40;16.20;;;;;;;2.89;82.42;101017.63;208419;1315;141429;-68
2021/12/18 14:27:17;;;;;;;18.30;13.20;;;;;;;2.93;82.47;101008.84;209443;1315;140628;-68
2021/12/18 14:32:35;;;;;;;25.70;14.00;;;;;;;2.92;82.52;101001.92;208714;1316;150456;-68
2021/12/18 14:38:14;;;;;;;18.00;12.90;;;;;;;2.94;82.67;100998.55;208238;1316;140152;-69
2021/12/18 14:43:23;;;;;;;18.30;12.50;;;;;;;2.92;82.30;100994.73;209529;1315;140767;-69
2021/12/18 14:48:53;;;;;;;20.80;14.40;;;;;;;2.91;82.56;100987.46;208625;1316;141674;-70
2021/12/18 14:54:10;;;;;;;23.10;15.60;;;;;;;2.96;82.43;100978.31;207885;1316;230774;-71
2021/12/18 14:59:32;;;;;;;23.60;15.60;;;;;;;3.00;82.48;100964.94;208202;1314;140804;-73
2021/12/18 15:04:36;;;;;;;25.50;15.20;;;;;;;2.98;82.83;100955.51;207581;1317;140101;-72
2021/12/18 15:09:55;;;;;;;18.30;13.10;;;;;;;3.00;82.64;100949.65;208438;1315;139884;-66
2021/12/18 15:15:17;;;;;;;9.60;6.20;;;;;;;2.98;82.70;100937.06;207853;1315;139975;-66
2021/12/18 15:20:25;;;;;;;25.00;14.50;;;;;;;2.95;82.73;100927.00;207871;1315;139902;-68
2021/12/18 15:25:35;;;;;;;29.70;19.00;;;;;;;2.95;82.75;100927.27;207695;1316;143238;-67
2021/12/18 15:30:39;;;;;;;20.70;12.90;;;;;;;2.98;82.93;100927.71;207994;1318;141286;-68
2021/12/18 15:35:43;;;;;;;18.30;13.10;;;;;;;2.99;83.00;100926.27;207857;1315;139627;-67
2021/12/18 15:40:49;;;;;;;29.10;16.50;;;;;;;2.97;82.88;100930.61;207960;1316;140284;-67
2021/12/18 15:45:54;;;;;;;34.60;17.00;;;;;;;2.98;83.12;100920.01;208226;1316;140575;-69
2021/12/18 15:50:58;;;;;;;21.90;12.90;;;;;;;3.03;82.97;100914.45;208128;1316;141010;-70
2021/12/18 15:56:03;;;;;;;22.70;15.70;;;;;;;3.01;83.00;100909.00;207798;1311;139301;-69
2021/12/18 16:01:07;;;;;;;22.80;14.50;;;;;;;3.01;83.12;100906.92;207815;1315;140348;-67
2021/12/18 16:06:13;;;;;;;21.90;13.50;;;;;;;3.06;82.94;100904.83;208104;1315;143125;-69
2021/12/18 16:11:18;;;;;;;24.80;14.90;;;;;;;3.09;82.97;100904.86;206795;1315;140752;-70
2021/12/18 16:16:22;;;;;;;28.00;17.50;;;;;;;3.06;83.48;100901.27;207617;1315;140651;-71
2021/12/18 16:21:28;;;;;;;28.10;16.00;;;;;;;3.04;83.51;100897.39;207045;1315;141218;-70
2021/12/18 16:26:39;;;;;;;29.30;15.20;;;;;;;3.08;83.55;100896.52;208241;1315;140356;-70
2021/12/18 16:31:44;;;;;;;28.10;17.20;;;;;;;3.10;83.42;100901.38;208866;1317;140632;-72
2021/12/18 16:36:52;;;;;;;27.30;18.90;;;;;;;3.13;83.58;100901.59;209207;1315;140992;-70
2021/12/18 16:42:03;;;;;;;30.70;17.50;;;;;;;3.17;83.54;100901.36;208420;1315;140177;-69
2021/12/18 16:47:13;;;;;;;28.60;19.10;;;;;;;3.21;83.47;100889.75;208992;1318;142197;-69
2021/12/18 16:52:19;;;;;;;24.30;16.80;;;;;;;3.24;83.51;100885.35;207942;1316;141137;-69
2021/12/18 16:57:34;;;;;;;28.30;16.40;;;;;;;3.23;83.73;100863.34;209541;1318;140529;-69
2021/12/18 17:02:38;;;;;;;31.90;17.10;;;;;;;3.23;83.53;100862.15;208056;1315;141283;-72
2021/12/18 17:07:43;;;;;;;27.40;17.20;;;;;;;3.25;83.57;100860.52;208041;1315;140823;-72
2021/12/18 17:13:10;;;;;;;25.50;16.30;;;;;;;3.28;83.81;100859.51;207926;1315;142199;-67
2021/12/18 17:18:14;;;;;;;29.50;16.00;;;;;;;3.29;83.76;100840.80;208813;1315;140645;-69
2021/12/18 17:23:22;;;;;;;27.30;14.60;;;;;;;3.31;83.79;100835.44;207588;1315;141923;-67
2021/12/18 17:28:29;;;;;;;32.50;17.60;;;;;;;3.30;83.68;100830.27;207011;1315;141987;-69
2021/12/18 17:33:40;;;;;;;23.00;13.40;;;;;;;3.32;84.20;100826.75;207300;1315;140784;-67
2021/12/18 17:38:45;;;;;;;24.80;16.10;;;;;;;3.32;84.25;100821.05;207868;1316;231846;-71
2021/12/18 17:43:50;;;;;;;34.60;21.30;;;;;;;3.33;83.85;100812.00;207920;1315;140512;-68
2021/12/18 17:49:18;;;;;;;28.70;17.10;;;;;;;3.35;84.09;100802.34;207840;1315;141329;-68
2021/12/18 17:54:22;;;;;;;26.10;16.60;;;;;;;3.36;84.28;100797.24;207231;1315;139621;-69
2021/12/18 17:59:28;;;;;;;33.00;18.90;;;;;;;3.35;84.35;100791.21;207881;1313;161976;-68
2021/12/18 18:04:32;;;;;;;33.20;17.00;;;;;;;3.39;84.44;100776.60;207627;1317;140208;-69
2021/12/18 18:10:01;;;;;;;31.90;19.80;;;;;;;3.45;84.44;100768.93;207646;1316;140774;-68
2021/12/18 18:15:07;;;;;;;35.90;18.40;;;;;;;3.46;84.52;100755.85;207252;1316;140410;-69
2021/12/18 18:20:17;;;;;;;30.00;17.70;;;;;;;3.45;84.65;100760.43;208158;1315;139686;-70
2021/12/18 18:25:24;;;;;;;29.40;17.90;;;;;;;3.49;84.57;100757.45;207790;1315;140504;-67
2021/12/18 18:30:32;;;;;;;40.50;21.00;;;;;;;3.57;84.71;100740.45;209109;1315;141401;-68
2021/12/18 18:36:10;;;;;;;29.80;16.70;;;;;;;3.60;84.55;100717.26;207715;1315;141674;-71
2021/12/18 18:41:14;;;;;;;26.30;14.20;;;;;;;3.61;84.59;100713.42;209262;1312;141756;-68
2021/12/18 18:46:33;;;;;;;19.70;12.80;;;;;;;3.63;84.37;100717.05;209310;1316;142262;-68
2021/12/18 18:51:42;;;;;;;17.00;10.10;;;;;;;3.59;84.56;100705.58;208799;1316;141813;-69
2021/12/18 18:56:47;;;;;;;15.90;10.10;;;;;;;3.59;84.78;100695.01;208991;1317;153086;-70
2021/12/18 19:02:12;;;;;;;19.00;11.30;;;;;;;3.63;84.66;100683.96;209055;1315;140693;-70
2021/12/18 19:07:50;;;;;;;;;;;;;;;;;;;;;
2021/12/18 19:13:01;;;;;;;18.30;12.30;;;;;;;3.68;84.85;100669.53;208481;1321;140634;-70
2021/12/18 19:18:17;;;;;;;14.10;8.60;;;;;;;3.71;84.96;100680.02;207643;1318;141402;-68
2021/12/18 19:23:22;;;;;;;18.40;11.20;;;;;;;3.73;85.21;100679.91;207046;1318;140314;-68
2021/12/18 19:28:56;;;;;;;11.80;9.40;;;;;;;3.76;85.11;100673.45;207785;1318;140410;-67
2021/12/18 19:34:13;;;;;;;18.20;13.30;;;;;;;3.80;85.13;100653.17;207977;1316;142215;-68
2021/12/18 19:39:20;;;;;;;15.90;12.30;;;;;;;3.87;85.34;100649.38;207322;1316;140556;-72
2021/12/18 19:44:31;;;;;;;15.30;10.20;;;;;;;3.86;85.28;100642.71;208114;1315;139742;-66
2021/12/18 19:49:54;;;;;;;12.70;9.20;;;;;;;3.90;85.66;100621.24;209122;1316;140274;-69
2021/12/18 19:55:06;;;;;;;17.90;9.10;;;;;;;3.98;85.40;100618.76;207350;1316;140709;-69
2021/12/18 20:00:15;;;;;;;15.80;9.70;;;;;;;4.02;85.52;100618.80;209076;1316;140337;-69
2021/12/18 20:05:29;;;;;;;15.90;9.30;;;;;;;4.01;85.34;100605.48;208025;1315;139488;-69
2021/12/18 20:10:35;;;;;;;13.60;9.00;;;;;;;4.00;85.37;100600.05;208552;1315;141251;-70
2021/12/18 20:15:51;;;;;;;9.90;6.20;;;;;;;4.04;85.39;100595.19;207877;1315;141864;-67
2021/12/18 20:20:58;;;;;;;16.20;10.90;;;;;;;4.02;85.46;100587.58;208574;1316;140295;-66
2021/12/18 20:26:06;;;;;;;20.00;11.80;;;;;;;3.99;85.59;100578.06;207702;1315;139523;-68
2021/12/18 20:31:46;;;;;;;18.00;10.80;;;;;;;4.01;85.53;100570.77;208097;1315;140346;-69
2021/12/18 20:36:55;;;;;;;16.10;11.70;;;;;;;4.02;85.78;100556.05;206754;1315;141109;-71
2021/12/18 20:42:13;;;;;;;17.20;10.30;;;;;;;4.01;85.73;100535.21;208758;1315;140568;-72
2021/12/18 20:47:34;;;;;;;16.60;10.30;;;;;;;4.09;85.83;100519.25;209095;1312;141152;-73
2021/12/18 20:52:40;;;;;;;16.40;10.90;;;;;;;4.15;85.91;100518.16;208272;1317;140997;-72
2021/12/18 20:57:48;;;;;;;18.70;10.30;;;;;;;4.15;85.57;100520.84;208146;1315;140415;-70
2021/12/18 21:03:07;;;;;;;11.20;8.30;;;;;;;4.12;85.62;100507.63;207726;1316;139865;-72
2021/12/18 21:08:13;;;;;;;17.70;12.00;;;;;;;4.09;85.56;100504.84;208680;1315;141706;-70
2021/12/18 21:13:31;;;;;;;16.70;10.70;;;;;;;4.07;85.70;100500.14;208697;1315;141472;-69
2021/12/18 21:18:37;;;;;;;14.60;9.10;;;;;;;4.13;85.65;100484.02;206346;1317;3504356;-67
2021/12/18 21:23:46;;;;;;;15.00;9.60;;;;;;;4.10;85.58;100471.33;208047;1312;141075;-69
2021/12/18 21:28:51;;;;;;;15.20;10.00;;;;;;;4.08;85.76;100476.13;207485;1320;141725;-70
2021/12/18 21:34:07;;;;;;;18.80;10.30;;;;;;;4.07;85.59;100461.75;206925;1315;140238;-70
2021/12/18 21:39:24;;;;;;;15.40;8.50;;;;;;;4.02;85.43;100454.95;208233;1315;142487;-71
2021/12/18 21:45:04;;;;;;;;;;;;;;;;;;;;;
2021/12/18 21:50:19;;;;;;;14.50;9.80;;;;;;;4.05;85.73;100461.13;207531;1315;140121;-70
2021/12/18 21:55:29;;;;;;;13.60;9.60;;;;;;;4.03;85.60;100455.90;207597;1315;139702;-71
2021/12/18 22:00:38;;;;;;;13.60;10.20;;;;;;;4.04;85.83;100456.69;207123;1316;140248;-67
2021/12/18 22:05:49;;;;;;;;;;;;;;;4.01;85.81;100452.77;207590;1315;141466;-67
2021/12/18 22:11:00;;;;;;;19.10;10.90;;;;;;;3.97;86.15;100440.02;207964;1316;126602;-68
2021/12/18 22:16:11;;;;;;;18.10;10.30;;;;;;;3.98;85.90;100435.06;208675;1315;140581;-68
2021/12/18 22:21:16;;;;;;;12.90;8.10;;;;;;;3.99;85.99;100435.41;208736;1316;140711;-69
2021/12/18 22:26:24;;;;;;;11.80;8.90;;;;;;;3.98;85.90;100440.96;207696;1315;140437;-69
2021/12/18 22:31:32;;;;;;;17.30;8.90;;;;;;;3.97;85.92;100438.84;208022;1316;139926;-67
2021/12/18 22:36:41;;;;;;;12.30;10.40;;;;;;;4.00;85.95;100430.06;206946;1316;143123;-68
2021/12/18 22:41:45;;;;;;;14.10;8.00;;;;;;;4.01;85.99;100425.84;207143;1315;246489;-67
2021/12/18 22:46:53;;;;;;;7.40;5.90;;;;;;;3.97;85.86;100417.52;208152;1316;144354;-67
2021/12/18 22:52:11;;;;;;;6.80;5.60;;;;;;;3.92;85.99;100409.48;208358;1316;140680;-70
2021/12/18 22:57:20;;;;;;;7.20;5.80;;;;;;;3.92;86.11;100387.87;208258;1315;141220;-70
2021/12/18 23:02:26;;;;;;;12.90;10.30;;;;;;;3.92;86.17;100375.08;209106;1316;141056;-70
2021/12/18 23:07:31;;;;;;;8.60;6.70;;;;;;;3.96;86.13;100364.59;209259;1316;140209;-71
2021/12/18 23:14:06;;;;;;;10.80;5.40;;;;;;;4.00;85.94;100357.26;208247;1316;139882;-69
2021/12/18 23:24:30;;;;;;;6.20;5.40;;;;;;;4.13;86.04;100334.48;208827;1316;140986;-71
2021/12/18 23:29:34;;;;;;;5.90;4.30;;;;;;;4.11;85.95;100310.71;207825;1316;141077;-70
2021/12/18 23:34:39;;;;;;;7.00;5.00;;;;;;;4.13;85.65;100297.93;208132;1316;140161;-74
2021/12/18 23:40:04;;;;;;;8.60;5.50;;;;;;;4.16;85.93;100279.85;208590;1315;140416;-70
2021/12/18 23:51:13;;;;;;;8.20;5.10;;;;;;;4.20;85.87;100248.16;207699;1316;140872;-68
2021/12/18 23:56:19;;;;;;;6.80;5.50;;;;;;;4.19;85.89;100227.49;207141;1316;139978;-70
